sensor_id;sensor_type;location;lat;lon;timestamp;temperature;humidity
19924;DHT22;10124;53.068;18.224;2022-11-15T00:00:22;6.50;1.00
19924;DHT22;10124;53.068;18.224;2022-11-15T00:03:08;6.40;1.00
19924;DHT22;10124;53.068;18.224;2022-11-15T00:05:54;6.50;1.00
19924;DHT22;10124;53.068;18.224;2022-11-15T00:08:40;6.40;1.00
19924;DHT22;10124;53.068;18.224;2022-11-15T00:11:26;6.40;1.00
19924;DHT22;10124;53.068;18.224;2022-11-15T00:14:12;6.30;1.00
19924;DHT22;10124;53.068;18.224;2022-11-15T00:16:58;6.40;1.00
19924;DHT22;10124;53.068;18.224;2022-11-15T00:19:44;6.40;1.00
19924;DHT22;10124;53.068;18.224;2022-11-15T00:22:33;6.40;1.00
19924;DHT22;10124;53.068;18.224;2022-11-15T00:25:20;6.30;1.00
19924;DHT22;10124;53.068;18.224;2022-11-15T00:28:06;6.30;1.00
19924;DHT22;10124;53.068;18.224;2022-11-15T00:30:52;6.30;1.00
19924;DHT22;10124;53.068;18.224;2022-11-15T00:33:38;6.30;1.00
19924;DHT22;10124;53.068;18.224;2022-11-15T00:36:25;6.30;1.00
19924;DHT22;10124;53.068;18.224;2022-11-15T00:39:10;6.30;1.00
19924;DHT22;10124;53.068;18.224;2022-11-15T00:41:57;6.30;1.00
19924;DHT22;10124;53.068;18.224;2022-11-15T00:44:43;6.30;1.00
19924;DHT22;10124;53.068;18.224;2022-11-15T00:47:29;6.30;1.00
19924;DHT22;10124;53.068;18.224;2022-11-15T00:50:15;6.20;1.00
19924;DHT22;10124;53.068;18.224;2022-11-15T00:56:44;6.20;1.00
19924;DHT22;10124;53.068;18.224;2022-11-15T00:59:30;6.20;1.00
19924;DHT22;10124;53.068;18.224;2022-11-15T01:02:17;6.20;1.00
19924;DHT22;10124;53.068;18.224;2022-11-15T01:05:03;6.10;1.00
19924;DHT22;10124;53.068;18.224;2022-11-15T01:07:53;6.10;1.00
19924;DHT22;10124;53.068;18.224;2022-11-15T01:10:40;6.10;1.00
19924;DHT22;10124;53.068;18.224;2022-11-15T01:13:26;6.10;1.00
19924;DHT22;10124;53.068;18.224;2022-11-15T01:16:14;6.10;1.00
19924;DHT22;10124;53.068;18.224;2022-11-15T01:19:01;6.00;1.00
19924;DHT22;10124;53.068;18.224;2022-11-15T01:21:51;6.00;1.00
19924;DHT22;10124;53.068;18.224;2022-11-15T01:24:37;5.90;1.00
19924;DHT22;10124;53.068;18.224;2022-11-15T01:27:24;6.00;1.00
19924;DHT22;10124;53.068;18.224;2022-11-15T01:30:10;6.00;1.00
19924;DHT22;10124;53.068;18.224;2022-11-15T01:32:56;6.00;1.00
19924;DHT22;10124;53.068;18.224;2022-11-15T01:35:42;5.90;1.00
19924;DHT22;10124;53.068;18.224;2022-11-15T01:38:28;5.90;7.70
19924;DHT22;10124;53.068;18.224;2022-11-15T01:41:17;6.00;1.00
19924;DHT22;10124;53.068;18.224;2022-11-15T01:47:28;6.00;1.00
19924;DHT22;10124;53.068;18.224;2022-11-15T01:50:18;6.00;1.00
19924;DHT22;10124;53.068;18.224;2022-11-15T01:53:06;5.90;1.00
19924;DHT22;10124;53.068;18.224;2022-11-15T01:55:53;6.00;1.00
19924;DHT22;10124;53.068;18.224;2022-11-15T01:58:41;5.90;1.00
19924;DHT22;10124;53.068;18.224;2022-11-15T02:01:28;6.00;1.00
19924;DHT22;10124;53.068;18.224;2022-11-15T02:07:06;5.90;1.00
19924;DHT22;10124;53.068;18.224;2022-11-15T02:09:53;5.90;1.00
19924;DHT22;10124;53.068;18.224;2022-11-15T02:12:41;5.90;1.00
19924;DHT22;10124;53.068;18.224;2022-11-15T02:15:34;5.90;1.00
19924;DHT22;10124;53.068;18.224;2022-11-15T02:18:28;6.00;1.00
19924;DHT22;10124;53.068;18.224;2022-11-15T02:21:37;5.90;1.00
19924;DHT22;10124;53.068;18.224;2022-11-15T02:42:23;5.80;1.00
19924;DHT22;10124;53.068;18.224;2022-11-15T02:45:35;5.70;1.00
19924;DHT22;10124;53.068;18.224;2022-11-15T02:48:24;5.70;21.50
19924;DHT22;10124;53.068;18.224;2022-11-15T02:51:12;5.70;99.90
19924;DHT22;10124;53.068;18.224;2022-11-15T02:53:59;5.70;99.90
19924;DHT22;10124;53.068;18.224;2022-11-15T02:56:45;5.70;99.90
19924;DHT22;10124;53.068;18.224;2022-11-15T03:05:47;5.70;99.90
19924;DHT22;10124;53.068;18.224;2022-11-15T03:08:48;5.70;99.90
19924;DHT22;10124;53.068;18.224;2022-11-15T03:11:40;5.70;99.90
19924;DHT22;10124;53.068;18.224;2022-11-15T03:14:34;5.70;99.90
19924;DHT22;10124;53.068;18.224;2022-11-15T03:17:33;5.70;99.90
19924;DHT22;10124;53.068;18.224;2022-11-15T03:20:20;5.70;99.90
19924;DHT22;10124;53.068;18.224;2022-11-15T03:23:09;5.80;99.90
19924;DHT22;10124;53.068;18.224;2022-11-15T03:25:56;5.70;99.90
19924;DHT22;10124;53.068;18.224;2022-11-15T03:28:49;5.70;99.90
19924;DHT22;10124;53.068;18.224;2022-11-15T03:31:39;5.70;99.90
19924;DHT22;10124;53.068;18.224;2022-11-15T03:34:44;5.70;99.90
19924;DHT22;10124;53.068;18.224;2022-11-15T03:37:55;5.70;99.90
19924;DHT22;10124;53.068;18.224;2022-11-15T03:40:49;5.70;99.90
19924;DHT22;10124;53.068;18.224;2022-11-15T03:43:56;5.70;99.90
19924;DHT22;10124;53.068;18.224;2022-11-15T03:47:00;5.70;99.90
19924;DHT22;10124;53.068;18.224;2022-11-15T03:49:53;5.80;99.90
19924;DHT22;10124;53.068;18.224;2022-11-15T03:52:42;5.70;99.90
19924;DHT22;10124;53.068;18.224;2022-11-15T03:55:32;5.70;99.90
19924;DHT22;10124;53.068;18.224;2022-11-15T03:58:18;5.80;99.90
19924;DHT22;10124;53.068;18.224;2022-11-15T04:01:04;5.80;99.90
19924;DHT22;10124;53.068;18.224;2022-11-15T04:03:51;5.90;99.90
19924;DHT22;10124;53.068;18.224;2022-11-15T04:06:36;5.80;99.90
19924;DHT22;10124;53.068;18.224;2022-11-15T04:09:23;5.80;99.90
19924;DHT22;10124;53.068;18.224;2022-11-15T04:12:09;5.80;99.90
19924;DHT22;10124;53.068;18.224;2022-11-15T04:14:55;5.80;99.90
19924;DHT22;10124;53.068;18.224;2022-11-15T04:17:55;5.80;99.90
19924;DHT22;10124;53.068;18.224;2022-11-15T04:20:42;5.90;99.90
19924;DHT22;10124;53.068;18.224;2022-11-15T04:23:46;5.90;99.90
19924;DHT22;10124;53.068;18.224;2022-11-15T04:26:53;6.00;99.90
19924;DHT22;10124;53.068;18.224;2022-11-15T04:29:39;6.00;99.90
19924;DHT22;10124;53.068;18.224;2022-11-15T04:32:25;5.90;99.90
19924;DHT22;10124;53.068;18.224;2022-11-15T04:35:11;5.90;99.90
19924;DHT22;10124;53.068;18.224;2022-11-15T04:37:58;5.90;99.90
19924;DHT22;10124;53.068;18.224;2022-11-15T04:40:44;5.90;99.90
19924;DHT22;10124;53.068;18.224;2022-11-15T04:43:31;5.90;99.90
19924;DHT22;10124;53.068;18.224;2022-11-15T04:46:17;5.90;99.90
19924;DHT22;10124;53.068;18.224;2022-11-15T04:49:04;5.90;99.90
19924;DHT22;10124;53.068;18.224;2022-11-15T04:51:50;5.90;99.90
19924;DHT22;10124;53.068;18.224;2022-11-15T04:54:35;6.00;99.90
19924;DHT22;10124;53.068;18.224;2022-11-15T04:57:21;5.80;99.90
19924;DHT22;10124;53.068;18.224;2022-11-15T05:00:11;5.80;99.90
19924;DHT22;10124;53.068;18.224;2022-11-15T05:02:57;5.90;99.90
19924;DHT22;10124;53.068;18.224;2022-11-15T05:06:02;5.90;99.90
19924;DHT22;10124;53.068;18.224;2022-11-15T05:08:49;5.90;99.90
19924;DHT22;10124;53.068;18.224;2022-11-15T05:11:35;5.80;99.90
19924;DHT22;10124;53.068;18.224;2022-11-15T05:14:21;5.80;99.90
19924;DHT22;10124;53.068;18.224;2022-11-15T05:17:07;5.80;99.90
19924;DHT22;10124;53.068;18.224;2022-11-15T05:19:54;5.90;99.90
19924;DHT22;10124;53.068;18.224;2022-11-15T05:22:40;5.90;99.90
19924;DHT22;10124;53.068;18.224;2022-11-15T05:25:26;6.80;99.90
19924;DHT22;10124;53.068;18.224;2022-11-15T05:28:13;5.90;99.90
19924;DHT22;10124;53.068;18.224;2022-11-15T05:31:06;5.90;99.90
19924;DHT22;10124;53.068;18.224;2022-11-15T05:33:54;5.90;99.90
19924;DHT22;10124;53.068;18.224;2022-11-15T05:36:43;6.00;99.90
19924;DHT22;10124;53.068;18.224;2022-11-15T05:39:33;5.90;99.90
19924;DHT22;10124;53.068;18.224;2022-11-15T05:42:19;5.80;99.90
19924;DHT22;10124;53.068;18.224;2022-11-15T05:45:07;5.80;99.90
19924;DHT22;10124;53.068;18.224;2022-11-15T05:47:55;5.80;99.90
19924;DHT22;10124;53.068;18.224;2022-11-15T05:50:45;5.80;99.90
19924;DHT22;10124;53.068;18.224;2022-11-15T05:53:32;5.80;99.90
19924;DHT22;10124;53.068;18.224;2022-11-15T05:56:20;5.80;99.90
19924;DHT22;10124;53.068;18.224;2022-11-15T05:59:07;5.80;99.90
19924;DHT22;10124;53.068;18.224;2022-11-15T06:01:54;5.80;99.90
19924;DHT22;10124;53.068;18.224;2022-11-15T06:04:40;5.80;99.90
19924;DHT22;10124;53.068;18.224;2022-11-15T06:07:28;5.80;99.90
19924;DHT22;10124;53.068;18.224;2022-11-15T06:10:14;5.80;99.90
19924;DHT22;10124;53.068;18.224;2022-11-15T06:13:02;5.90;99.90
19924;DHT22;10124;53.068;18.224;2022-11-15T06:15:49;5.80;99.90
19924;DHT22;10124;53.068;18.224;2022-11-15T06:18:36;5.90;99.90
19924;DHT22;10124;53.068;18.224;2022-11-15T06:21:22;5.80;99.90
19924;DHT22;10124;53.068;18.224;2022-11-15T06:24:08;5.80;99.90
19924;DHT22;10124;53.068;18.224;2022-11-15T06:26:54;5.80;99.90
19924;DHT22;10124;53.068;18.224;2022-11-15T06:29:41;5.90;99.90
19924;DHT22;10124;53.068;18.224;2022-11-15T06:32:29;5.80;99.90
19924;DHT22;10124;53.068;18.224;2022-11-15T06:35:16;5.80;99.90
19924;DHT22;10124;53.068;18.224;2022-11-15T06:38:07;5.90;99.90
19924;DHT22;10124;53.068;18.224;2022-11-15T06:40:54;5.80;99.90
19924;DHT22;10124;53.068;18.224;2022-11-15T06:43:40;5.90;99.90
19924;DHT22;10124;53.068;18.224;2022-11-15T06:46:27;5.90;99.90
19924;DHT22;10124;53.068;18.224;2022-11-15T06:49:13;5.90;99.90
19924;DHT22;10124;53.068;18.224;2022-11-15T06:52:00;5.90;99.90
19924;DHT22;10124;53.068;18.224;2022-11-15T06:54:46;5.90;99.90
19924;DHT22;10124;53.068;18.224;2022-11-15T06:57:32;5.90;99.90
19924;DHT22;10124;53.068;18.224;2022-11-15T07:00:20;6.00;99.90
19924;DHT22;10124;53.068;18.224;2022-11-15T07:03:06;6.00;99.90
19924;DHT22;10124;53.068;18.224;2022-11-15T07:05:54;6.00;99.90
19924;DHT22;10124;53.068;18.224;2022-11-15T07:08:40;5.90;99.90
19924;DHT22;10124;53.068;18.224;2022-11-15T07:11:27;6.20;99.90
19924;DHT22;10124;53.068;18.224;2022-11-15T07:14:13;6.10;99.90
19924;DHT22;10124;53.068;18.224;2022-11-15T07:16:59;6.10;99.90
19924;DHT22;10124;53.068;18.224;2022-11-15T07:19:44;6.10;99.90
19924;DHT22;10124;53.068;18.224;2022-11-15T07:22:30;6.20;99.90
19924;DHT22;10124;53.068;18.224;2022-11-15T07:25:16;6.10;99.90
19924;DHT22;10124;53.068;18.224;2022-11-15T07:28:03;6.10;99.90
19924;DHT22;10124;53.068;18.224;2022-11-15T07:30:49;6.10;99.90
19924;DHT22;10124;53.068;18.224;2022-11-15T07:33:35;6.10;95.50
19924;DHT22;10124;53.068;18.224;2022-11-15T07:36:21;6.00;99.90
19924;DHT22;10124;53.068;18.224;2022-11-15T07:39:07;5.90;99.90
19924;DHT22;10124;53.068;18.224;2022-11-15T07:41:53;6.00;99.90
19924;DHT22;10124;53.068;18.224;2022-11-15T07:44:59;6.00;99.90
19924;DHT22;10124;53.068;18.224;2022-11-15T07:47:46;6.00;99.90
19924;DHT22;10124;53.068;18.224;2022-11-15T07:50:32;6.00;99.90
19924;DHT22;10124;53.068;18.224;2022-11-15T07:53:18;6.10;99.90
19924;DHT22;10124;53.068;18.224;2022-11-15T07:56:07;6.10;99.90
19924;DHT22;10124;53.068;18.224;2022-11-15T07:58:53;6.10;99.90
19924;DHT22;10124;53.068;18.224;2022-11-15T08:01:40;6.10;99.90
19924;DHT22;10124;53.068;18.224;2022-11-15T08:04:26;6.10;99.90
19924;DHT22;10124;53.068;18.224;2022-11-15T08:07:12;6.10;99.90
19924;DHT22;10124;53.068;18.224;2022-11-15T08:09:59;6.10;99.90
19924;DHT22;10124;53.068;18.224;2022-11-15T08:12:47;6.10;99.90
19924;DHT22;10124;53.068;18.224;2022-11-15T08:15:34;6.10;99.90
19924;DHT22;10124;53.068;18.224;2022-11-15T08:18:20;6.00;99.90
19924;DHT22;10124;53.068;18.224;2022-11-15T08:21:08;7.10;99.90
19924;DHT22;10124;53.068;18.224;2022-11-15T08:24:01;6.10;99.90
19924;DHT22;10124;53.068;18.224;2022-11-15T08:26:47;6.10;99.90
19924;DHT22;10124;53.068;18.224;2022-11-15T08:29:33;6.10;99.90
19924;DHT22;10124;53.068;18.224;2022-11-15T08:32:19;6.20;99.90
19924;DHT22;10124;53.068;18.224;2022-11-15T08:35:05;6.30;99.90
19924;DHT22;10124;53.068;18.224;2022-11-15T08:37:53;6.30;99.90
19924;DHT22;10124;53.068;18.224;2022-11-15T08:40:39;6.40;38.00
19924;DHT22;10124;53.068;18.224;2022-11-15T08:43:25;6.40;12.40
19924;DHT22;10124;53.068;18.224;2022-11-15T08:46:12;6.40;1.00
19924;DHT22;10124;53.068;18.224;2022-11-15T08:48:59;6.50;1.00
19924;DHT22;10124;53.068;18.224;2022-11-15T08:51:45;6.40;1.00
19924;DHT22;10124;53.068;18.224;2022-11-15T08:54:31;6.60;1.00
19924;DHT22;10124;53.068;18.224;2022-11-15T08:57:17;6.40;1.00
19924;DHT22;10124;53.068;18.224;2022-11-15T09:00:04;6.50;1.00
19924;DHT22;10124;53.068;18.224;2022-11-15T09:02:50;6.60;1.00
19924;DHT22;10124;53.068;18.224;2022-11-15T09:05:37;6.70;1.00
19924;DHT22;10124;53.068;18.224;2022-11-15T09:08:23;6.70;1.00
19924;DHT22;10124;53.068;18.224;2022-11-15T09:11:30;6.50;1.00
19924;DHT22;10124;53.068;18.224;2022-11-15T09:14:16;6.60;1.00
19924;DHT22;10124;53.068;18.224;2022-11-15T09:17:02;6.60;1.00
19924;DHT22;10124;53.068;18.224;2022-11-15T09:19:48;6.70;1.00
19924;DHT22;10124;53.068;18.224;2022-11-15T09:22:34;6.70;1.00
19924;DHT22;10124;53.068;18.224;2022-11-15T09:25:20;6.60;1.00
19924;DHT22;10124;53.068;18.224;2022-11-15T09:28:07;6.60;1.00
19924;DHT22;10124;53.068;18.224;2022-11-15T09:31:02;6.70;1.00
19924;DHT22;10124;53.068;18.224;2022-11-15T09:33:49;6.70;1.00
19924;DHT22;10124;53.068;18.224;2022-11-15T09:36:35;7.70;1.00
19924;DHT22;10124;53.068;18.224;2022-11-15T09:39:23;6.60;1.00
19924;DHT22;10124;53.068;18.224;2022-11-15T09:51:40;6.60;1.00
19924;DHT22;10124;53.068;18.224;2022-11-15T09:57:45;6.60;1.00
19924;DHT22;10124;53.068;18.224;2022-11-15T10:00:21;6.60;1.00
19924;DHT22;10124;53.068;18.224;2022-11-15T10:05:45;6.60;1.00
19924;DHT22;10124;53.068;18.224;2022-11-15T10:11:05;6.70;1.00
19924;DHT22;10124;53.068;18.224;2022-11-15T10:13:59;6.80;1.00
19924;DHT22;10124;53.068;18.224;2022-11-15T10:19:03;6.80;1.00
19924;DHT22;10124;53.068;18.224;2022-11-15T10:21:55;6.80;1.00
19924;DHT22;10124;53.068;18.224;2022-11-15T10:24:27;6.90;1.00
19924;DHT22;10124;53.068;18.224;2022-11-15T10:26:57;6.90;1.00
19924;DHT22;10124;53.068;18.224;2022-11-15T10:29:25;6.90;1.00
19924;DHT22;10124;53.068;18.224;2022-11-15T10:31:53;7.00;1.00
19924;DHT22;10124;53.068;18.224;2022-11-15T10:34:23;7.40;1.00
19924;DHT22;10124;53.068;18.224;2022-11-15T10:36:58;6.90;1.00
19924;DHT22;10124;53.068;18.224;2022-11-15T10:39:26;6.80;1.00
19924;DHT22;10124;53.068;18.224;2022-11-15T10:41:54;7.40;1.00
19924;DHT22;10124;53.068;18.224;2022-11-15T10:44:31;6.90;1.00
19924;DHT22;10124;53.068;18.224;2022-11-15T10:49:28;6.80;1.00
19924;DHT22;10124;53.068;18.224;2022-11-15T10:54:46;6.90;1.00
19924;DHT22;10124;53.068;18.224;2022-11-15T10:57:16;6.80;1.00
19924;DHT22;10124;53.068;18.224;2022-11-15T10:59:47;6.90;1.00
19924;DHT22;10124;53.068;18.224;2022-11-15T11:02:32;6.90;1.00
19924;DHT22;10124;53.068;18.224;2022-11-15T11:05:01;6.90;1.00
19924;DHT22;10124;53.068;18.224;2022-11-15T11:07:32;6.80;1.00
19924;DHT22;10124;53.068;18.224;2022-11-15T11:10:21;6.80;1.00
19924;DHT22;10124;53.068;18.224;2022-11-15T11:13:37;6.70;1.00
19924;DHT22;10124;53.068;18.224;2022-11-15T11:22:05;6.90;1.00
19924;DHT22;10124;53.068;18.224;2022-11-15T11:24:59;6.90;1.00
19924;DHT22;10124;53.068;18.224;2022-11-15T11:36:03;7.00;1.00
19924;DHT22;10124;53.068;18.224;2022-11-15T11:38:41;7.10;1.00
19924;DHT22;10124;53.068;18.224;2022-11-15T11:44:05;7.10;1.00
19924;DHT22;10124;53.068;18.224;2022-11-15T11:49:48;7.20;1.00
19924;DHT22;10124;53.068;18.224;2022-11-15T11:52:43;7.10;1.00
19924;DHT22;10124;53.068;18.224;2022-11-15T11:58:25;7.10;1.00
19924;DHT22;10124;53.068;18.224;2022-11-15T12:03:43;7.20;1.00
19924;DHT22;10124;53.068;18.224;2022-11-15T12:06:39;7.00;1.00
19924;DHT22;10124;53.068;18.224;2022-11-15T12:09:26;6.90;1.00
19924;DHT22;10124;53.068;18.224;2022-11-15T12:13:00;7.00;1.00
19924;DHT22;10124;53.068;18.224;2022-11-15T12:15:12;7.00;1.00
19924;DHT22;10124;53.068;18.224;2022-11-15T12:17:41;6.90;1.00
19924;DHT22;10124;53.068;18.224;2022-11-15T12:20:27;6.80;1.00
19924;DHT22;10124;53.068;18.224;2022-11-15T12:25:49;6.90;1.00
19924;DHT22;10124;53.068;18.224;2022-11-15T12:34:50;7.00;1.00
19924;DHT22;10124;53.068;18.224;2022-11-15T12:36:52;7.00;1.00
19924;DHT22;10124;53.068;18.224;2022-11-15T12:39:20;6.90;1.00
19924;DHT22;10124;53.068;18.224;2022-11-15T12:52:06;7.00;1.00
19924;DHT22;10124;53.068;18.224;2022-11-15T12:59:53;6.90;1.00
19924;DHT22;10124;53.068;18.224;2022-11-15T13:15:55;6.80;1.00
19924;DHT22;10124;53.068;18.224;2022-11-15T13:18:38;6.80;1.00
19924;DHT22;10124;53.068;18.224;2022-11-15T13:21:22;6.70;1.00
19924;DHT22;10124;53.068;18.224;2022-11-15T13:24:16;6.80;1.00
19924;DHT22;10124;53.068;18.224;2022-11-15T13:26:47;6.70;1.00
19924;DHT22;10124;53.068;18.224;2022-11-15T13:29:31;6.70;1.00
19924;DHT22;10124;53.068;18.224;2022-11-15T13:32:02;6.60;1.00
19924;DHT22;10124;53.068;18.224;2022-11-15T13:34:33;6.60;1.00
19924;DHT22;10124;53.068;18.224;2022-11-15T13:39:50;6.60;1.00
19924;DHT22;10124;53.068;18.224;2022-11-15T13:42:20;6.60;1.00
19924;DHT22;10124;53.068;18.224;2022-11-15T13:44:59;6.50;19.70
19924;DHT22;10124;53.068;18.224;2022-11-15T13:47:30;6.60;75.00
19924;DHT22;10124;53.068;18.224;2022-11-15T13:49:59;6.60;99.90
19924;DHT22;10124;53.068;18.224;2022-11-15T13:52:32;6.50;94.80
19924;DHT22;10124;53.068;18.224;2022-11-15T13:57:41;6.50;45.80
19924;DHT22;10124;53.068;18.224;2022-11-15T14:02:57;6.50;99.90
19924;DHT22;10124;53.068;18.224;2022-11-15T14:05:32;6.50;99.90
19924;DHT22;10124;53.068;18.224;2022-11-15T14:08:12;6.50;99.90
19924;DHT22;10124;53.068;18.224;2022-11-15T14:10:48;6.50;99.90
19924;DHT22;10124;53.068;18.224;2022-11-15T14:13:29;6.50;99.90
19924;DHT22;10124;53.068;18.224;2022-11-15T14:16:20;6.50;99.90
19924;DHT22;10124;53.068;18.224;2022-11-15T14:18:51;6.40;99.90
19924;DHT22;10124;53.068;18.224;2022-11-15T14:21:20;6.40;99.90
19924;DHT22;10124;53.068;18.224;2022-11-15T14:23:48;6.40;99.90
19924;DHT22;10124;53.068;18.224;2022-11-15T14:26:33;6.30;99.90
19924;DHT22;10124;53.068;18.224;2022-11-15T14:29:23;6.40;99.90
19924;DHT22;10124;53.068;18.224;2022-11-15T14:31:51;6.40;99.90
19924;DHT22;10124;53.068;18.224;2022-11-15T14:34:19;6.40;99.90
19924;DHT22;10124;53.068;18.224;2022-11-15T14:36:49;6.40;99.90
19924;DHT22;10124;53.068;18.224;2022-11-15T14:39:17;6.40;99.90
19924;DHT22;10124;53.068;18.224;2022-11-15T14:41:44;6.30;99.90
19924;DHT22;10124;53.068;18.224;2022-11-15T14:44:12;6.30;99.90
19924;DHT22;10124;53.068;18.224;2022-11-15T14:46:40;6.30;99.90
19924;DHT22;10124;53.068;18.224;2022-11-15T14:49:08;6.30;99.90
19924;DHT22;10124;53.068;18.224;2022-11-15T14:51:36;6.20;99.90
19924;DHT22;10124;53.068;18.224;2022-11-15T14:54:04;6.20;99.90
19924;DHT22;10124;53.068;18.224;2022-11-15T14:56:32;6.20;99.90
19924;DHT22;10124;53.068;18.224;2022-11-15T14:59:00;6.20;99.90
19924;DHT22;10124;53.068;18.224;2022-11-15T15:01:29;6.20;99.90
19924;DHT22;10124;53.068;18.224;2022-11-15T15:03:57;6.20;99.90
19924;DHT22;10124;53.068;18.224;2022-11-15T15:06:26;6.20;99.90
19924;DHT22;10124;53.068;18.224;2022-11-15T15:08:55;6.10;99.90
19924;DHT22;10124;53.068;18.224;2022-11-15T15:11:28;6.10;99.90
19924;DHT22;10124;53.068;18.224;2022-11-15T15:13:57;6.10;99.90
19924;DHT22;10124;53.068;18.224;2022-11-15T15:16:30;6.10;99.90
19924;DHT22;10124;53.068;18.224;2022-11-15T15:19:00;6.10;99.90
19924;DHT22;10124;53.068;18.224;2022-11-15T15:21:29;6.00;99.90
19924;DHT22;10124;53.068;18.224;2022-11-15T15:24:04;6.00;99.90
19924;DHT22;10124;53.068;18.224;2022-11-15T15:26:32;6.00;99.90
19924;DHT22;10124;53.068;18.224;2022-11-15T15:29:04;6.10;99.90
19924;DHT22;10124;53.068;18.224;2022-11-15T15:31:31;6.10;99.90
19924;DHT22;10124;53.068;18.224;2022-11-15T15:34:01;6.00;99.90
19924;DHT22;10124;53.068;18.224;2022-11-15T15:36:29;6.00;99.90
19924;DHT22;10124;53.068;18.224;2022-11-15T15:38:57;6.10;99.90
19924;DHT22;10124;53.068;18.224;2022-11-15T15:41:25;6.00;99.90
19924;DHT22;10124;53.068;18.224;2022-11-15T15:43:53;6.10;99.90
19924;DHT22;10124;53.068;18.224;2022-11-15T15:46:21;6.00;99.90
19924;DHT22;10124;53.068;18.224;2022-11-15T15:48:49;6.00;99.90
19924;DHT22;10124;53.068;18.224;2022-11-15T15:51:17;6.10;99.90
19924;DHT22;10124;53.068;18.224;2022-11-15T15:53:48;6.00;99.90
19924;DHT22;10124;53.068;18.224;2022-11-15T15:56:17;6.00;99.90
19924;DHT22;10124;53.068;18.224;2022-11-15T15:58:47;6.00;99.90
19924;DHT22;10124;53.068;18.224;2022-11-15T16:01:15;6.00;1.00
19924;DHT22;10124;53.068;18.224;2022-11-15T16:03:43;6.00;1.00
19924;DHT22;10124;53.068;18.224;2022-11-15T16:06:38;6.10;1.00
19924;DHT22;10124;53.068;18.224;2022-11-15T16:09:12;6.00;99.90
19924;DHT22;10124;53.068;18.224;2022-11-15T16:11:46;6.00;99.90
19924;DHT22;10124;53.068;18.224;2022-11-15T16:14:15;6.00;99.90
19924;DHT22;10124;53.068;18.224;2022-11-15T16:16:45;6.00;1.00
19924;DHT22;10124;53.068;18.224;2022-11-15T16:19:13;6.00;99.90
19924;DHT22;10124;53.068;18.224;2022-11-15T16:21:41;6.00;99.90
19924;DHT22;10124;53.068;18.224;2022-11-15T16:24:09;5.90;99.90
19924;DHT22;10124;53.068;18.224;2022-11-15T16:26:37;6.00;1.00
19924;DHT22;10124;53.068;18.224;2022-11-15T16:29:05;6.00;1.00
19924;DHT22;10124;53.068;18.224;2022-11-15T16:31:34;6.00;1.00
19924;DHT22;10124;53.068;18.224;2022-11-15T16:34:01;6.00;1.00
19924;DHT22;10124;53.068;18.224;2022-11-15T16:36:31;6.00;1.00
19924;DHT22;10124;53.068;18.224;2022-11-15T16:39:00;6.00;1.00
19924;DHT22;10124;53.068;18.224;2022-11-15T16:41:31;6.00;1.00
19924;DHT22;10124;53.068;18.224;2022-11-15T16:43:59;6.00;1.00
19924;DHT22;10124;53.068;18.224;2022-11-15T16:46:27;6.00;1.00
19924;DHT22;10124;53.068;18.224;2022-11-15T16:48:56;6.00;1.00
19924;DHT22;10124;53.068;18.224;2022-11-15T16:51:24;6.00;1.00
19924;DHT22;10124;53.068;18.224;2022-11-15T16:53:52;6.00;1.00
19924;DHT22;10124;53.068;18.224;2022-11-15T16:56:26;6.00;1.00
19924;DHT22;10124;53.068;18.224;2022-11-15T16:58:58;6.00;1.00
19924;DHT22;10124;53.068;18.224;2022-11-15T17:01:31;6.00;1.00
19924;DHT22;10124;53.068;18.224;2022-11-15T17:04:01;6.00;1.00
19924;DHT22;10124;53.068;18.224;2022-11-15T17:06:41;6.00;1.00
19924;DHT22;10124;53.068;18.224;2022-11-15T17:09:20;6.00;1.00
19924;DHT22;10124;53.068;18.224;2022-11-15T17:11:52;6.00;1.00
19924;DHT22;10124;53.068;18.224;2022-11-15T17:14:20;6.00;1.00
19924;DHT22;10124;53.068;18.224;2022-11-15T17:16:48;6.00;1.00
19924;DHT22;10124;53.068;18.224;2022-11-15T17:19:18;6.00;1.00
19924;DHT22;10124;53.068;18.224;2022-11-15T17:21:47;6.00;1.00
19924;DHT22;10124;53.068;18.224;2022-11-15T17:24:18;6.00;1.00
19924;DHT22;10124;53.068;18.224;2022-11-15T17:26:47;6.00;1.00
19924;DHT22;10124;53.068;18.224;2022-11-15T17:29:15;6.00;1.00
19924;DHT22;10124;53.068;18.224;2022-11-15T17:31:43;6.00;1.00
19924;DHT22;10124;53.068;18.224;2022-11-15T17:34:11;6.00;1.00
19924;DHT22;10124;53.068;18.224;2022-11-15T17:36:39;6.00;1.00
19924;DHT22;10124;53.068;18.224;2022-11-15T17:39:06;6.00;1.00
19924;DHT22;10124;53.068;18.224;2022-11-15T17:41:34;6.00;1.00
19924;DHT22;10124;53.068;18.224;2022-11-15T17:44:02;6.10;1.00
19924;DHT22;10124;53.068;18.224;2022-11-15T17:46:30;6.10;1.00
19924;DHT22;10124;53.068;18.224;2022-11-15T17:48:58;6.00;1.00
19924;DHT22;10124;53.068;18.224;2022-11-15T17:51:26;6.10;1.00
19924;DHT22;10124;53.068;18.224;2022-11-15T17:53:54;6.10;1.00
19924;DHT22;10124;53.068;18.224;2022-11-15T17:56:24;6.10;1.00
19924;DHT22;10124;53.068;18.224;2022-11-15T17:59:01;6.10;1.00
19924;DHT22;10124;53.068;18.224;2022-11-15T18:01:34;6.00;1.00
19924;DHT22;10124;53.068;18.224;2022-11-15T18:04:07;6.10;1.00
19924;DHT22;10124;53.068;18.224;2022-11-15T18:06:35;6.10;1.00
19924;DHT22;10124;53.068;18.224;2022-11-15T18:09:03;6.10;1.00
19924;DHT22;10124;53.068;18.224;2022-11-15T18:11:33;6.00;1.00
19924;DHT22;10124;53.068;18.224;2022-11-15T18:14:02;6.00;1.00
19924;DHT22;10124;53.068;18.224;2022-11-15T18:16:32;6.10;1.00
19924;DHT22;10124;53.068;18.224;2022-11-15T18:19:01;6.10;1.00
19924;DHT22;10124;53.068;18.224;2022-11-15T18:21:34;6.20;1.00
19924;DHT22;10124;53.068;18.224;2022-11-15T18:24:42;6.10;1.00
19924;DHT22;10124;53.068;18.224;2022-11-15T18:27:11;6.10;1.00
19924;DHT22;10124;53.068;18.224;2022-11-15T18:29:38;6.10;1.00
19924;DHT22;10124;53.068;18.224;2022-11-15T18:32:06;6.10;1.00
19924;DHT22;10124;53.068;18.224;2022-11-15T18:34:38;6.20;1.00
19924;DHT22;10124;53.068;18.224;2022-11-15T18:37:06;6.10;1.00
19924;DHT22;10124;53.068;18.224;2022-11-15T18:39:34;6.10;1.00
19924;DHT22;10124;53.068;18.224;2022-11-15T18:42:02;6.10;1.00
19924;DHT22;10124;53.068;18.224;2022-11-15T18:44:30;6.10;1.00
19924;DHT22;10124;53.068;18.224;2022-11-15T18:46:57;6.10;1.00
19924;DHT22;10124;53.068;18.224;2022-11-15T18:49:25;6.10;1.00
19924;DHT22;10124;53.068;18.224;2022-11-15T18:51:53;6.10;1.00
19924;DHT22;10124;53.068;18.224;2022-11-15T18:54:21;6.10;1.00
19924;DHT22;10124;53.068;18.224;2022-11-15T18:56:56;6.20;1.00
19924;DHT22;10124;53.068;18.224;2022-11-15T18:59:24;6.20;1.00
19924;DHT22;10124;53.068;18.224;2022-11-15T19:01:53;6.20;1.00
19924;DHT22;10124;53.068;18.224;2022-11-15T19:04:22;6.10;1.00
19924;DHT22;10124;53.068;18.224;2022-11-15T19:06:50;6.20;1.00
19924;DHT22;10124;53.068;18.224;2022-11-15T19:09:19;6.20;1.00
19924;DHT22;10124;53.068;18.224;2022-11-15T19:11:48;6.20;1.00
19924;DHT22;10124;53.068;18.224;2022-11-15T19:14:18;6.20;1.00
19924;DHT22;10124;53.068;18.224;2022-11-15T19:16:50;6.20;1.00